createdAt,value
2022-10-07T00:01:33.609Z,1.48
2022-10-07T00:04:01.026Z,1.75
2022-10-07T00:06:29.751Z,2.17
2022-10-07T00:08:57.145Z,2.20
2022-10-07T00:11:25.391Z,1.63
2022-10-07T00:13:54.218Z,1.90
2022-10-07T00:16:24.383Z,1.73
2022-10-07T00:18:52.172Z,1.48
2022-10-07T00:21:20.361Z,1.77
2022-10-07T00:23:49.329Z,1.60
2022-10-07T00:26:18.271Z,2.00
2022-10-07T00:28:46.289Z,1.90
2022-10-07T00:31:14.433Z,1.70
2022-10-07T00:33:42.340Z,1.70
2022-10-07T00:36:10.164Z,1.67
2022-10-07T00:38:37.578Z,1.85
2022-10-07T00:41:06.915Z,2.00
2022-10-07T00:43:34.479Z,1.70
2022-10-07T00:46:06.512Z,1.67
2022-10-07T00:48:35.395Z,1.90
2022-10-07T00:51:03.275Z,1.90
2022-10-07T00:53:32.471Z,1.90
2022-10-07T00:56:02.788Z,2.30
2022-10-07T00:58:34.101Z,1.83
2022-10-07T01:01:01.609Z,2.03
2022-10-07T01:03:29.199Z,2.05
2022-10-07T01:05:56.572Z,1.83
2022-10-07T01:08:24.087Z,1.92
2022-10-07T01:10:55.994Z,1.47
2022-10-07T01:13:26.133Z,2.13
2022-10-07T01:15:59.250Z,1.65
2022-10-07T01:18:31.480Z,1.60
2022-10-07T01:21:00.714Z,1.60
2022-10-07T01:23:33.496Z,1.80
2022-10-07T01:26:22.159Z,1.85
2022-10-07T01:28:52.609Z,1.67
2022-10-07T01:31:22.274Z,1.85
2022-10-07T01:33:51.355Z,1.52
2022-10-07T01:36:20.545Z,1.83
2022-10-07T01:38:50.680Z,1.70
2022-10-07T01:41:18.994Z,2.00
2022-10-07T01:43:47.125Z,1.80
2022-10-07T01:46:18.387Z,2.20
2022-10-07T01:48:46.417Z,1.80
2022-10-07T01:51:13.932Z,1.80
2022-10-07T01:53:49.839Z,1.70
2022-10-07T01:56:27.492Z,1.85
2022-10-07T01:59:04.599Z,2.47
2022-10-07T02:01:39.420Z,1.90
2022-10-07T02:04:16.127Z,1.85
2022-10-07T02:06:48.446Z,2.03
2022-10-07T02:09:21.707Z,1.83
2022-10-07T02:11:53.642Z,1.75
2022-10-07T02:14:23.697Z,1.90
2022-10-07T02:16:54.149Z,1.70
2022-10-07T02:19:23.552Z,2.20
2022-10-07T02:21:52.201Z,1.98
2022-10-07T02:24:22.408Z,1.80
2022-10-07T02:26:50.470Z,1.77
2022-10-07T02:29:19.218Z,2.60
2022-10-07T02:31:48.378Z,1.80
2022-10-07T02:34:20.281Z,2.42
2022-10-07T02:36:51.615Z,1.90
2022-10-07T02:39:19.111Z,1.80
2022-10-07T02:41:49.869Z,2.08
2022-10-07T02:44:20.572Z,1.90
2022-10-07T02:46:50.211Z,2.47
2022-10-07T02:49:21.650Z,1.98
2022-10-07T02:51:51.372Z,2.00
2022-10-07T02:54:20.209Z,2.70
2022-10-07T02:56:48.422Z,1.85
2022-10-07T02:59:16.558Z,2.38
2022-10-07T03:01:47.436Z,2.40
2022-10-07T03:04:15.852Z,1.97
2022-10-07T03:06:45.057Z,2.00
2022-10-07T03:09:12.635Z,2.25
2022-10-07T03:11:40.366Z,1.80
2022-10-07T03:14:07.976Z,2.15
2022-10-07T03:16:35.496Z,2.30
2022-10-07T03:19:03.260Z,1.80
2022-10-07T03:21:32.975Z,2.03
2022-10-07T03:24:04.892Z,2.03
2022-10-07T03:26:32.954Z,1.85
2022-10-07T03:29:01.087Z,2.10
2022-10-07T03:31:28.976Z,2.08
2022-10-07T03:33:57.360Z,1.73
2022-10-07T03:36:25.000Z,1.90
2022-10-07T03:38:52.406Z,2.13
2022-10-07T03:41:21.136Z,1.77
2022-10-07T03:43:48.668Z,2.00
2022-10-07T03:46:17.251Z,2.00
2022-10-07T03:48:44.684Z,1.73
2022-10-07T03:51:12.062Z,1.88
2022-10-07T03:53:39.727Z,2.03
2022-10-07T03:56:07.379Z,2.03
2022-10-07T03:58:36.080Z,1.80
2022-10-07T04:01:07.362Z,2.00
2022-10-07T04:03:35.090Z,1.83
2022-10-07T04:06:03.616Z,1.90
2022-10-07T04:08:32.776Z,2.22
2022-10-07T04:11:00.795Z,2.20
2022-10-07T04:13:28.431Z,2.05
2022-10-07T04:15:57.233Z,2.08
2022-10-07T04:18:24.718Z,2.70
2022-10-07T04:20:52.111Z,2.42
2022-10-07T04:23:19.513Z,3.20
2022-10-07T04:25:47.786Z,2.65
2022-10-07T04:28:16.852Z,2.22
2022-10-07T04:30:44.664Z,2.27
2022-10-07T04:33:13.479Z,2.30
2022-10-07T04:35:41.162Z,2.20
2022-10-07T04:38:09.833Z,2.45
2022-10-07T04:40:39.652Z,2.40
2022-10-07T04:43:23.284Z,2.87
2022-10-07T04:45:52.017Z,2.42
2022-10-07T04:48:21.644Z,2.30
2022-10-07T04:50:51.739Z,2.25
2022-10-07T04:53:19.699Z,2.50
2022-10-07T04:55:47.948Z,2.50
2022-10-07T04:58:15.692Z,2.60
2022-10-07T05:00:44.356Z,2.60
2022-10-07T05:03:11.883Z,2.88
2022-10-07T05:05:42.992Z,2.25
2022-10-07T05:08:10.397Z,2.60
2022-10-07T05:10:38.571Z,2.22
2022-10-07T05:13:06.251Z,2.63
2022-10-07T05:15:33.911Z,2.50
2022-10-07T05:18:01.286Z,2.28
2022-10-07T05:20:28.676Z,2.53
2022-10-07T05:22:57.407Z,2.60
2022-10-07T05:25:24.732Z,2.10
2022-10-07T05:27:53.896Z,2.40
2022-10-07T05:30:21.406Z,2.50
2022-10-07T05:32:48.760Z,2.57
2022-10-07T05:35:16.145Z,2.40
2022-10-07T05:37:47.444Z,2.30
2022-10-07T05:40:17.607Z,2.90
2022-10-07T05:42:44.950Z,3.00
2022-10-07T05:45:12.376Z,3.00
2022-10-07T05:47:39.943Z,3.00
2022-10-07T05:50:07.960Z,3.50
2022-10-07T05:52:35.638Z,3.20
2022-10-07T05:55:03.164Z,3.42
2022-10-07T05:57:32.060Z,3.70
2022-10-07T05:59:59.404Z,3.22
2022-10-07T06:02:26.881Z,3.10
2022-10-07T06:04:54.343Z,2.80
2022-10-07T06:07:27.055Z,3.28
2022-10-07T06:10:14.016Z,3.33
2022-10-07T06:13:02.726Z,3.55
2022-10-07T06:15:30.922Z,3.20
2022-10-07T06:17:58.304Z,3.45
2022-10-07T06:20:25.738Z,3.50
2022-10-07T06:22:53.692Z,3.00
2022-10-07T06:25:21.049Z,2.80
2022-10-07T06:27:53.766Z,2.97
2022-10-07T06:30:21.665Z,3.10
2022-10-07T06:32:49.043Z,2.33
2022-10-07T06:35:16.483Z,2.60
2022-10-07T06:37:44.034Z,3.15
2022-10-07T06:40:11.947Z,3.00
2022-10-07T06:42:39.330Z,2.92
2022-10-07T06:45:09.219Z,2.90
2022-10-07T06:47:36.657Z,2.73
2022-10-07T06:50:04.068Z,2.75
2022-10-07T06:52:31.455Z,2.50
2022-10-07T06:54:59.076Z,3.03
2022-10-07T06:57:44.812Z,3.38
2022-10-07T07:00:15.211Z,3.13
2022-10-07T07:02:43.046Z,2.67
2022-10-07T07:05:13.956Z,2.90
2022-10-07T07:07:41.285Z,2.92
2022-10-07T07:10:09.106Z,2.70
2022-10-07T07:12:36.459Z,2.40
2022-10-07T07:15:05.038Z,2.60
2022-10-07T07:17:33.747Z,2.30
2022-10-07T07:20:01.108Z,2.60
2022-10-07T07:22:28.440Z,2.85
2022-10-07T07:24:55.767Z,2.70
2022-10-07T07:27:23.134Z,2.90
2022-10-07T07:29:51.241Z,2.67
2022-10-07T07:32:18.641Z,2.90
2022-10-07T07:34:47.542Z,2.25
2022-10-07T07:37:15.425Z,2.27
2022-10-07T07:39:44.469Z,2.65
2022-10-07T07:42:11.824Z,2.30
2022-10-07T07:44:40.049Z,2.25
2022-10-07T07:47:08.566Z,2.28
2022-10-07T07:49:35.994Z,2.37
2022-10-07T07:52:05.422Z,1.70
2022-10-07T07:54:33.987Z,2.47
2022-10-07T07:57:01.346Z,2.15
2022-10-07T07:59:28.728Z,1.80
2022-10-07T08:01:56.089Z,2.13
2022-10-07T08:04:23.709Z,1.95
2022-10-07T08:06:51.030Z,1.92
2022-10-07T08:09:19.707Z,1.70
2022-10-07T08:11:47.041Z,2.00
2022-10-07T08:14:14.544Z,1.80
2022-10-07T08:16:43.339Z,1.90
2022-10-07T08:19:12.199Z,1.98
2022-10-07T08:21:39.709Z,2.13
2022-10-07T08:24:08.184Z,2.00
2022-10-07T08:26:37.235Z,2.00
2022-10-07T08:29:05.039Z,1.88
2022-10-07T08:31:33.299Z,1.67
2022-10-07T08:34:01.384Z,1.88
2022-10-07T08:36:29.572Z,2.28
2022-10-07T08:38:57.519Z,1.90
2022-10-07T08:41:31.865Z,1.98
2022-10-07T08:44:03.371Z,2.00
2022-10-07T08:46:34.381Z,2.00
2022-10-07T08:49:03.728Z,1.90
2022-10-07T08:51:34.178Z,2.37
2022-10-07T08:54:01.944Z,2.30
2022-10-07T08:56:30.167Z,1.88
2022-10-07T08:59:12.572Z,1.95
2022-10-07T09:01:47.869Z,2.20
2022-10-07T09:04:22.926Z,1.90
2022-10-07T09:06:54.162Z,2.05
2022-10-07T09:09:23.435Z,1.83
2022-10-07T09:11:52.026Z,2.35
2022-10-07T09:14:27.202Z,2.08
2022-10-07T09:16:55.059Z,2.00
2022-10-07T09:19:25.757Z,2.20
2022-10-07T09:21:53.274Z,2.22
2022-10-07T09:24:21.871Z,2.47
2022-10-07T09:26:49.640Z,2.08
2022-10-07T09:29:18.544Z,1.93
2022-10-07T09:31:49.306Z,1.58
2022-10-07T09:34:20.852Z,2.45
2022-10-07T09:37:06.133Z,2.08
2022-10-07T09:39:33.508Z,1.90
2022-10-07T09:42:01.309Z,2.17
2022-10-07T09:44:29.286Z,2.08
2022-10-07T09:46:59.461Z,1.60
2022-10-07T09:49:40.925Z,1.80
2022-10-07T09:52:15.700Z,1.85
2022-10-07T09:54:43.592Z,2.07
2022-10-07T09:57:24.118Z,1.60
2022-10-07T09:59:51.456Z,1.90
2022-10-07T10:02:22.172Z,1.90
2022-10-07T10:04:51.017Z,2.05
2022-10-07T10:07:20.129Z,1.70
2022-10-07T10:09:49.758Z,1.95
2022-10-07T10:12:17.548Z,1.85
2022-10-07T10:14:47.159Z,1.80
2022-10-07T10:17:27.667Z,1.70
2022-10-07T10:19:55.694Z,1.90
2022-10-07T10:22:27.758Z,1.70
2022-10-07T10:25:13.012Z,2.05
2022-10-07T10:27:45.637Z,2.00
2022-10-07T10:30:16.510Z,2.03
2022-10-07T10:32:52.128Z,1.80
2022-10-07T10:35:23.538Z,1.80
2022-10-07T10:38:05.531Z,1.67
2022-10-07T10:40:37.089Z,1.65
2022-10-07T10:43:12.503Z,1.92
2022-10-07T10:45:45.672Z,1.67
2022-10-07T10:48:25.694Z,1.73
2022-10-07T10:50:56.681Z,1.60
2022-10-07T10:53:34.565Z,1.60
2022-10-07T10:56:08.345Z,1.50
2022-10-07T10:58:41.064Z,2.53
2022-10-07T11:01:13.232Z,1.88
2022-10-07T11:04:01.316Z,1.83
2022-10-07T11:06:30.874Z,2.45
2022-10-07T11:08:59.531Z,2.05
2022-10-07T11:11:28.268Z,1.63
2022-10-07T11:13:58.635Z,1.58
2022-10-07T11:16:27.753Z,1.40
2022-10-07T11:18:58.688Z,1.42
2022-10-07T11:21:27.892Z,1.98
2022-10-07T11:23:59.969Z,1.63
2022-10-07T11:26:32.451Z,1.90
2022-10-07T11:29:04.980Z,1.80
2022-10-07T11:31:35.322Z,2.00
2022-10-07T11:34:15.151Z,1.73
2022-10-07T11:36:45.447Z,1.83
2022-10-07T11:39:13.014Z,1.73
2022-10-07T11:41:46.420Z,1.80
2022-10-07T11:44:16.716Z,1.73
2022-10-07T11:46:45.534Z,1.60
2022-10-07T11:49:18.772Z,1.50
2022-10-07T11:51:52.233Z,1.70
2022-10-07T11:54:21.631Z,1.40
2022-10-07T11:56:50.383Z,1.77
2022-10-07T11:59:36.656Z,1.33
2022-10-07T12:02:04.283Z,2.17
2022-10-07T12:04:40.669Z,1.45
2022-10-07T12:07:26.785Z,1.55
2022-10-07T12:09:56.491Z,1.30
2022-10-07T12:12:24.403Z,1.48
2022-10-07T12:15:01.556Z,1.50
2022-10-07T12:17:30.297Z,1.50
2022-10-07T12:20:16.322Z,1.73
2022-10-07T12:22:43.890Z,1.63
2022-10-07T12:25:32.975Z,1.48
2022-10-07T12:28:00.850Z,1.63
2022-10-07T12:30:38.195Z,1.35
2022-10-07T12:33:15.459Z,1.85
2022-10-07T12:35:54.212Z,1.40
2022-10-07T12:38:24.397Z,1.70
2022-10-07T12:40:58.752Z,1.50
2022-10-07T12:43:32.285Z,1.42
2022-10-07T12:46:00.411Z,1.33
2022-10-07T12:48:30.815Z,1.63
2022-10-07T12:50:58.381Z,1.40
2022-10-07T12:53:27.749Z,1.50
2022-10-07T12:55:57.422Z,1.40
2022-10-07T12:58:54.491Z,1.67
2022-10-07T13:01:27.485Z,1.70
2022-10-07T13:04:10.452Z,1.63
2022-10-07T13:06:52.672Z,1.43
2022-10-07T13:09:31.404Z,1.33
2022-10-07T13:12:19.517Z,1.45
2022-10-07T13:14:57.062Z,1.40
2022-10-07T13:17:29.584Z,1.92
2022-10-07T13:20:02.475Z,1.27
2022-10-07T13:22:30.712Z,1.27
2022-10-07T13:24:58.909Z,1.67
2022-10-07T13:27:27.707Z,1.42
2022-10-07T13:29:56.693Z,1.17
2022-10-07T13:32:24.713Z,1.77
2022-10-07T13:34:52.979Z,1.30
2022-10-07T13:37:27.469Z,1.48
2022-10-07T13:39:55.067Z,1.50
2022-10-07T13:42:23.289Z,1.52
2022-10-07T13:44:50.707Z,1.17
2022-10-07T13:47:20.641Z,1.42
2022-10-07T13:49:49.384Z,1.10
2022-10-07T13:52:19.522Z,1.17
2022-10-07T13:54:50.680Z,1.27
2022-10-07T13:57:21.271Z,1.27
2022-10-07T13:59:51.444Z,1.55
2022-10-07T14:02:20.547Z,1.48
2022-10-07T14:04:51.114Z,1.10
2022-10-07T14:07:19.967Z,1.20
2022-10-07T14:09:48.425Z,1.30
2022-10-07T14:12:18.188Z,1.45
2022-10-07T14:14:47.121Z,1.67
2022-10-07T14:17:21.084Z,1.17
2022-10-07T14:19:53.223Z,1.00
2022-10-07T14:22:25.368Z,1.10
2022-10-07T14:24:54.255Z,1.40
2022-10-07T14:27:41.288Z,1.30
2022-10-07T14:30:56.389Z,1.00
2022-10-07T14:33:44.784Z,1.58
2022-10-07T14:36:15.123Z,1.00
2022-10-07T14:38:43.294Z,1.10
2022-10-07T14:41:10.805Z,1.10
2022-10-07T14:43:39.137Z,1.10
2022-10-07T14:46:11.444Z,1.20
2022-10-07T14:48:39.536Z,1.33
2022-10-07T14:51:07.184Z,1.15
2022-10-07T14:53:37.435Z,1.30
2022-10-07T14:56:05.096Z,1.42
2022-10-07T14:58:32.456Z,1.48
2022-10-07T15:01:00.212Z,1.40
2022-10-07T15:03:29.354Z,1.50
2022-10-07T15:05:56.668Z,1.83
2022-10-07T15:08:24.008Z,1.50
2022-10-07T15:10:52.717Z,1.20
2022-10-07T15:13:20.408Z,1.60
2022-10-07T15:15:48.766Z,1.30
2022-10-07T15:18:16.122Z,1.13
2022-10-07T15:20:43.479Z,1.40
2022-10-07T15:23:10.980Z,1.38
2022-10-07T15:25:44.470Z,1.20
2022-10-07T15:28:15.353Z,1.35
2022-10-07T15:30:43.061Z,1.60
2022-10-07T15:33:12.446Z,1.30
2022-10-07T15:35:40.161Z,1.40
2022-10-07T15:38:07.637Z,1.45
2022-10-07T15:40:35.200Z,1.60
2022-10-07T15:43:02.885Z,1.50
2022-10-07T15:45:31.654Z,1.33
2022-10-07T15:48:00.605Z,1.10
2022-10-07T15:50:28.787Z,1.30
2022-10-07T15:52:56.173Z,1.50
2022-10-07T15:55:23.514Z,1.58
2022-10-07T15:57:53.058Z,1.48
2022-10-07T16:00:21.726Z,1.30
2022-10-07T16:02:51.770Z,1.55
2022-10-07T16:05:19.167Z,1.30
2022-10-07T16:07:46.617Z,1.10
2022-10-07T16:10:14.050Z,1.50
2022-10-07T16:12:41.416Z,1.40
2022-10-07T16:15:09.242Z,1.33
2022-10-07T16:17:36.608Z,1.37
2022-10-07T16:20:11.056Z,1.90
2022-10-07T16:22:38.813Z,1.42
2022-10-07T16:25:06.581Z,1.20
2022-10-07T16:27:48.121Z,1.48
2022-10-07T16:30:33.399Z,1.40
2022-10-07T16:33:01.067Z,1.35
2022-10-07T16:35:31.358Z,1.20
2022-10-07T16:37:58.755Z,1.10
2022-10-07T16:40:26.251Z,1.15
2022-10-07T16:42:53.597Z,1.63
2022-10-07T16:45:21.428Z,1.30
2022-10-07T16:47:48.770Z,1.30
2022-10-07T16:50:16.242Z,2.13
2022-10-07T16:52:44.923Z,1.90
2022-10-07T16:55:13.091Z,1.70
2022-10-07T16:57:40.476Z,1.60
2022-10-07T17:00:08.267Z,1.70
2022-10-07T17:02:35.760Z,2.00
2022-10-07T17:05:03.166Z,1.77
2022-10-07T17:07:30.529Z,1.83
2022-10-07T17:09:59.212Z,1.40
2022-10-07T17:12:26.576Z,1.50
2022-10-07T17:14:53.926Z,1.50
2022-10-07T17:17:21.286Z,1.58
2022-10-07T17:19:48.636Z,1.60
2022-10-07T17:22:15.987Z,1.63
2022-10-07T17:24:43.393Z,1.60
2022-10-07T17:27:12.109Z,1.70
2022-10-07T17:29:39.464Z,1.60
2022-10-07T17:32:07.456Z,2.27
2022-10-07T17:34:34.810Z,1.77
2022-10-07T17:37:02.139Z,1.80
2022-10-07T17:39:31.082Z,1.63
2022-10-07T17:41:58.442Z,1.50
2022-10-07T17:44:27.164Z,1.73
2022-10-07T17:46:56.605Z,1.80
2022-10-07T17:49:24.432Z,1.70
2022-10-07T17:51:51.746Z,1.77
2022-10-07T17:54:19.236Z,1.63
2022-10-07T17:56:47.650Z,1.80
2022-10-07T17:59:15.487Z,2.00
2022-10-07T18:01:44.983Z,1.50
2022-10-07T18:04:14.794Z,1.73
2022-10-07T18:06:43.219Z,1.70
2022-10-07T18:09:12.882Z,1.70
2022-10-07T18:11:57.569Z,1.83
2022-10-07T18:14:43.445Z,1.90
2022-10-07T18:17:12.175Z,1.90
2022-10-07T18:19:41.118Z,2.00
2022-10-07T18:22:08.728Z,2.23
2022-10-07T18:24:36.048Z,1.60
2022-10-07T18:27:03.761Z,1.70
2022-10-07T18:29:31.945Z,1.70
2022-10-07T18:31:59.643Z,1.70
2022-10-07T18:34:28.484Z,1.97
2022-10-07T18:36:57.226Z,1.90
2022-10-07T18:39:24.878Z,1.75
2022-10-07T18:41:52.404Z,1.90
2022-10-07T18:44:19.779Z,1.77
2022-10-07T18:46:48.389Z,2.00
2022-10-07T18:49:15.767Z,1.85
2022-10-07T18:51:45.572Z,1.85
2022-10-07T18:54:12.993Z,2.15
2022-10-07T18:56:41.520Z,2.20
2022-10-07T18:59:09.848Z,1.70
2022-10-07T19:01:38.000Z,1.83
2022-10-07T19:04:08.626Z,1.67
2022-10-07T19:06:36.888Z,1.52
2022-10-07T19:09:07.099Z,1.98
2022-10-07T19:11:34.778Z,1.70
2022-10-07T19:14:02.425Z,2.00
2022-10-07T19:16:34.304Z,1.80
2022-10-07T19:19:02.679Z,1.63
2022-10-07T19:21:31.106Z,1.80
2022-10-07T19:24:01.380Z,1.70
2022-10-07T19:26:31.579Z,1.63
2022-10-07T19:28:59.074Z,1.63
2022-10-07T19:31:28.985Z,1.70
2022-10-07T19:33:57.569Z,1.80
2022-10-07T19:36:25.389Z,1.90
2022-10-07T19:38:53.387Z,1.80
2022-10-07T19:41:22.410Z,1.80
2022-10-07T19:43:52.006Z,1.73
2022-10-07T19:46:20.523Z,2.03
2022-10-07T19:48:48.184Z,1.60
2022-10-07T19:51:16.668Z,1.48
2022-10-07T19:53:47.041Z,1.55
2022-10-07T19:56:15.739Z,1.70
2022-10-07T19:58:47.781Z,1.70
2022-10-07T20:01:17.256Z,1.70
2022-10-07T20:03:44.879Z,1.98
2022-10-07T20:06:12.978Z,1.75
2022-10-07T20:08:41.702Z,1.90
2022-10-07T20:11:09.644Z,1.42
2022-10-07T20:13:37.722Z,2.00
2022-10-07T20:16:06.418Z,1.63
2022-10-07T20:18:35.973Z,1.67
2022-10-07T20:21:05.533Z,1.92
2022-10-07T20:23:33.311Z,1.73
2022-10-07T20:26:05.207Z,1.47
2022-10-07T20:28:32.761Z,2.10
2022-10-07T20:31:02.188Z,1.70
2022-10-07T20:33:29.696Z,1.60
2022-10-07T20:36:03.450Z,1.90
2022-10-07T20:38:50.828Z,1.90
2022-10-07T20:41:35.895Z,1.90
2022-10-07T20:44:03.334Z,1.90
2022-10-07T20:46:30.849Z,2.38
2022-10-07T20:48:58.259Z,1.70
2022-10-07T20:51:27.955Z,1.50
2022-10-07T20:53:55.284Z,1.65
2022-10-07T20:56:22.968Z,1.50
2022-10-07T20:58:50.850Z,1.90
2022-10-07T21:01:18.249Z,1.60
2022-10-07T21:03:45.732Z,2.00
2022-10-07T21:06:13.094Z,1.60
2022-10-07T21:08:41.803Z,1.60
2022-10-07T21:11:09.184Z,2.08
2022-10-07T21:13:36.562Z,1.70
2022-10-07T21:16:05.334Z,1.80
2022-10-07T21:18:32.968Z,1.80
2022-10-07T21:21:00.377Z,1.60
2022-10-07T21:23:29.258Z,1.80
2022-10-07T21:26:02.009Z,1.67
2022-10-07T21:28:32.247Z,1.73
2022-10-07T21:31:02.680Z,1.70
2022-10-07T21:33:30.571Z,1.70
2022-10-07T21:35:59.842Z,2.03
2022-10-07T21:38:27.757Z,1.77
2022-10-07T21:40:55.214Z,1.60
2022-10-07T21:43:23.962Z,1.90
2022-10-07T21:45:51.412Z,1.73
2022-10-07T21:48:19.213Z,1.67
2022-10-07T21:50:53.930Z,1.90
2022-10-07T21:53:21.396Z,1.70
2022-10-07T21:55:48.846Z,1.75
2022-10-07T21:58:16.508Z,1.77
2022-10-07T22:00:45.662Z,1.77
2022-10-07T22:03:13.273Z,1.73
2022-10-07T22:05:41.004Z,2.13
2022-10-07T22:08:29.429Z,2.00
2022-10-07T22:11:00.317Z,1.77
2022-10-07T22:13:28.080Z,1.80
2022-10-07T22:15:56.960Z,2.00
2022-10-07T22:18:24.430Z,1.73
2022-10-07T22:20:51.892Z,1.70
2022-10-07T22:23:19.808Z,1.60
2022-10-07T22:25:48.411Z,1.48
2022-10-07T22:28:15.841Z,1.20
2022-10-07T22:30:43.303Z,1.20
2022-10-07T22:33:15.331Z,1.40
2022-10-07T22:35:43.004Z,2.03
2022-10-07T22:38:11.155Z,1.20
2022-10-07T22:40:38.923Z,1.33
2022-10-07T22:43:06.794Z,1.40
2022-10-07T22:45:36.205Z,1.65
2022-10-07T22:48:04.073Z,1.38
2022-10-07T22:50:33.794Z,1.20
2022-10-07T22:53:01.437Z,1.30
2022-10-07T22:55:28.901Z,1.20
2022-10-07T22:57:56.404Z,1.13
2022-10-07T23:00:23.828Z,1.08
2022-10-07T23:02:54.032Z,1.45
2022-10-07T23:05:22.321Z,1.38
2022-10-07T23:07:51.042Z,1.37
2022-10-07T23:10:18.440Z,1.25
2022-10-07T23:12:46.616Z,1.92
2022-10-07T23:15:18.488Z,1.55
2022-10-07T23:17:45.857Z,1.27
2022-10-07T23:20:13.334Z,1.37
2022-10-07T23:22:41.414Z,1.20
2022-10-07T23:25:10.493Z,1.48
2022-10-07T23:27:39.289Z,1.30
2022-10-07T23:30:07.272Z,1.20
2022-10-07T23:32:34.692Z,1.30
2022-10-07T23:35:02.054Z,1.52
2022-10-07T23:37:29.425Z,1.30
2022-10-07T23:39:56.872Z,1.50
2022-10-07T23:42:25.606Z,1.40
2022-10-07T23:44:52.988Z,1.40
2022-10-07T23:47:22.879Z,1.63
2022-10-07T23:49:50.245Z,1.65
2022-10-07T23:52:17.707Z,1.30
2022-10-07T23:54:45.099Z,1.20
2022-10-07T23:57:12.460Z,1.40
2022-10-07T23:59:41.211Z,1.48
